sensor_id;sensor_type;location;lat;lon;timestamp;pressure;altitude;pressure_sealevel;temperature;humidity
72585;BME280;73873;40.084;32.908;2024-02-16T00:01:16;89374.81;;;4.30;100.00
72585;BME280;73873;40.084;32.908;2024-02-16T00:03:43;89370.00;;;4.37;99.97
72585;BME280;73873;40.084;32.908;2024-02-16T00:06:12;89369.31;;;4.46;99.11
72585;BME280;73873;40.084;32.908;2024-02-16T00:08:39;89360.94;;;4.47;99.04
72585;BME280;73873;40.084;32.908;2024-02-16T00:11:06;89368.41;;;4.49;98.36
72585;BME280;73873;40.084;32.908;2024-02-16T00:13:33;89368.00;;;4.50;98.95
72585;BME280;73873;40.084;32.908;2024-02-16T00:16:00;89368.41;;;4.49;98.24
72585;BME280;73873;40.084;32.908;2024-02-16T00:18:26;89366.09;;;4.51;98.85
72585;BME280;73873;40.084;32.908;2024-02-16T00:20:53;89371.06;;;4.58;97.96
72585;BME280;73873;40.084;32.908;2024-02-16T00:23:20;89372.84;;;4.61;97.57
72585;BME280;73873;40.084;32.908;2024-02-16T00:25:48;89371.25;;;4.64;97.25
72585;BME280;73873;40.084;32.908;2024-02-16T00:28:14;89371.69;;;4.62;97.62
72585;BME280;73873;40.084;32.908;2024-02-16T00:30:41;89373.44;;;4.65;97.35
72585;BME280;73873;40.084;32.908;2024-02-16T00:33:08;89368.59;;;4.64;96.63
72585;BME280;73873;40.084;32.908;2024-02-16T00:35:35;89364.66;;;4.68;96.82
72585;BME280;73873;40.084;32.908;2024-02-16T00:38:02;89367.72;;;4.76;95.87
72585;BME280;73873;40.084;32.908;2024-02-16T00:40:29;89367.00;;;4.75;95.60
72585;BME280;73873;40.084;32.908;2024-02-16T00:42:59;89365.84;;;4.76;95.54
72585;BME280;73873;40.084;32.908;2024-02-16T00:45:26;89367.28;;;4.59;95.17
72585;BME280;73873;40.084;32.908;2024-02-16T00:47:53;89369.91;;;4.50;96.40
72585;BME280;73873;40.084;32.908;2024-02-16T00:50:19;89369.88;;;4.41;96.03
72585;BME280;73873;40.084;32.908;2024-02-16T00:52:46;89360.94;;;4.47;95.95
72585;BME280;73873;40.084;32.908;2024-02-16T00:55:14;89369.91;;;4.50;95.58
72585;BME280;73873;40.084;32.908;2024-02-16T00:57:41;89373.41;;;4.56;95.85
72585;BME280;73873;40.084;32.908;2024-02-16T01:00:08;89371.06;;;4.49;95.83
72585;BME280;73873;40.084;32.908;2024-02-16T01:02:35;89362.59;;;4.54;95.95
72585;BME280;73873;40.084;32.908;2024-02-16T01:05:02;89373.56;;;4.52;95.37
72585;BME280;73873;40.084;32.908;2024-02-16T01:07:29;89372.78;;;4.24;97.80
72585;BME280;73873;40.084;32.908;2024-02-16T01:09:56;89367.59;;;4.12;98.33
72585;BME280;73873;40.084;32.908;2024-02-16T01:12:23;89371.88;;;4.18;98.38
72585;BME280;73873;40.084;32.908;2024-02-16T01:14:50;89367.19;;;4.22;97.54
72585;BME280;73873;40.084;32.908;2024-02-16T01:17:19;89366.31;;;4.25;96.94
72585;BME280;73873;40.084;32.908;2024-02-16T01:19:45;89370.16;;;4.34;96.40
72585;BME280;73873;40.084;32.908;2024-02-16T01:22:12;89375.44;;;4.34;95.59
72585;BME280;73873;40.084;32.908;2024-02-16T01:24:39;89360.59;;;4.18;96.47
72585;BME280;73873;40.084;32.908;2024-02-16T01:27:06;89374.06;;;4.20;96.73
72585;BME280;73873;40.084;32.908;2024-02-16T01:29:33;89373.22;;;4.32;96.11
72585;BME280;73873;40.084;32.908;2024-02-16T01:32:00;89376.44;;;4.36;95.70
72585;BME280;73873;40.084;32.908;2024-02-16T01:34:26;89378.06;;;4.34;95.25
72585;BME280;73873;40.084;32.908;2024-02-16T01:36:53;89378.28;;;4.08;96.03
72585;BME280;73873;40.084;32.908;2024-02-16T01:39:20;89383.28;;;3.84;96.15
72585;BME280;73873;40.084;32.908;2024-02-16T01:41:47;89385.09;;;3.65;98.31
72585;BME280;73873;40.084;32.908;2024-02-16T01:44:14;89381.38;;;3.85;97.11
72585;BME280;73873;40.084;32.908;2024-02-16T01:46:41;89384.63;;;3.89;97.48
72585;BME280;73873;40.084;32.908;2024-02-16T01:49:09;89386.28;;;3.95;97.13
72585;BME280;73873;40.084;32.908;2024-02-16T01:51:37;89384.13;;;4.12;95.90
72585;BME280;73873;40.084;32.908;2024-02-16T01:54:03;89390.59;;;4.20;95.07
72585;BME280;73873;40.084;32.908;2024-02-16T01:56:31;89384.47;;;4.23;94.56
72585;BME280;73873;40.084;32.908;2024-02-16T01:58:58;89384.78;;;4.25;93.70
72585;BME280;73873;40.084;32.908;2024-02-16T02:01:24;89382.72;;;4.30;94.15
72585;BME280;73873;40.084;32.908;2024-02-16T02:03:51;89386.22;;;4.17;94.43
72585;BME280;73873;40.084;32.908;2024-02-16T02:06:18;89386.03;;;4.12;94.95
72585;BME280;73873;40.084;32.908;2024-02-16T02:08:45;89391.81;;;3.66;96.50
72585;BME280;73873;40.084;32.908;2024-02-16T02:11:12;89394.56;;;3.85;96.45
72585;BME280;73873;40.084;32.908;2024-02-16T02:13:39;89401.34;;;3.95;95.51
72585;BME280;73873;40.084;32.908;2024-02-16T02:16:07;89398.16;;;4.00;95.59
72585;BME280;73873;40.084;32.908;2024-02-16T02:18:34;89398.59;;;3.77;95.92
72585;BME280;73873;40.084;32.908;2024-02-16T02:21:01;89396.56;;;3.50;97.76
72585;BME280;73873;40.084;32.908;2024-02-16T02:23:28;89400.31;;;3.61;97.54
72585;BME280;73873;40.084;32.908;2024-02-16T02:25:55;89399.03;;;3.75;96.93
72585;BME280;73873;40.084;32.908;2024-02-16T02:28:22;89409.31;;;3.82;96.84
72585;BME280;73873;40.084;32.908;2024-02-16T02:30:49;89407.47;;;3.92;95.79
72585;BME280;73873;40.084;32.908;2024-02-16T02:33:15;89408.09;;;3.96;95.38
72585;BME280;73873;40.084;32.908;2024-02-16T02:35:42;89411.31;;;4.00;95.01
72585;BME280;73873;40.084;32.908;2024-02-16T02:38:09;89411.31;;;4.00;94.56
72585;BME280;73873;40.084;32.908;2024-02-16T02:40:36;89414.25;;;4.02;95.18
72585;BME280;73873;40.084;32.908;2024-02-16T02:43:03;89413.06;;;4.03;94.85
72585;BME280;73873;40.084;32.908;2024-02-16T02:45:30;89419.22;;;4.00;94.41
72585;BME280;73873;40.084;32.908;2024-02-16T02:47:57;89421.28;;;3.74;95.18
72585;BME280;73873;40.084;32.908;2024-02-16T02:50:24;89418.97;;;3.54;97.27
72585;BME280;73873;40.084;32.908;2024-02-16T02:52:51;89418.22;;;3.32;99.15
72585;BME280;73873;40.084;32.908;2024-02-16T02:55:17;89427.34;;;3.40;98.69
72585;BME280;73873;40.084;32.908;2024-02-16T02:57:44;89421.91;;;3.56;97.38
72585;BME280;73873;40.084;32.908;2024-02-16T03:00:11;89431.47;;;3.63;96.84
72585;BME280;73873;40.084;32.908;2024-02-16T03:02:42;89424.06;;;3.70;96.78
72585;BME280;73873;40.084;32.908;2024-02-16T03:05:09;89431.38;;;3.76;96.07
72585;BME280;73873;40.084;32.908;2024-02-16T03:07:35;89429.25;;;3.61;96.50
72585;BME280;73873;40.084;32.908;2024-02-16T03:10:03;89433.84;;;3.70;96.62
72585;BME280;73873;40.084;32.908;2024-02-16T03:12:31;89426.63;;;3.61;96.58
72585;BME280;73873;40.084;32.908;2024-02-16T03:14:58;89429.56;;;3.63;96.06
72585;BME280;73873;40.084;32.908;2024-02-16T03:17:25;89431.56;;;3.59;96.58
72585;BME280;73873;40.084;32.908;2024-02-16T03:19:52;89433.47;;;3.59;96.03
72585;BME280;73873;40.084;32.908;2024-02-16T03:22:20;89438.25;;;3.73;95.52
72585;BME280;73873;40.084;32.908;2024-02-16T03:24:47;89441.19;;;3.75;95.76
72585;BME280;73873;40.084;32.908;2024-02-16T03:27:14;89444.25;;;3.74;95.37
72585;BME280;73873;40.084;32.908;2024-02-16T03:29:40;89444.19;;;3.64;96.55
72585;BME280;73873;40.084;32.908;2024-02-16T03:32:07;89436.91;;;3.47;97.92
72585;BME280;73873;40.084;32.908;2024-02-16T03:34:34;89433.09;;;3.48;98.53
72585;BME280;73873;40.084;32.908;2024-02-16T03:37:01;89426.00;;;3.57;97.99
72585;BME280;73873;40.084;32.908;2024-02-16T03:39:28;89430.16;;;3.67;96.98
72585;BME280;73873;40.084;32.908;2024-02-16T03:41:55;89433.59;;;3.77;96.20
72585;BME280;73873;40.084;32.908;2024-02-16T03:44:22;89422.78;;;3.84;95.54
72585;BME280;73873;40.084;32.908;2024-02-16T03:46:49;89417.97;;;3.83;95.38
72585;BME280;73873;40.084;32.908;2024-02-16T03:49:18;89420.00;;;3.79;95.70
72585;BME280;73873;40.084;32.908;2024-02-16T03:51:45;89427.78;;;3.82;95.61
72585;BME280;73873;40.084;32.908;2024-02-16T03:54:12;89424.69;;;3.84;95.27
72585;BME280;73873;40.084;32.908;2024-02-16T03:56:39;89422.94;;;3.81;95.67
72585;BME280;73873;40.084;32.908;2024-02-16T03:59:06;89430.41;;;3.82;95.34
72585;BME280;73873;40.084;32.908;2024-02-16T04:01:35;89432.59;;;3.84;95.11
72585;BME280;73873;40.084;32.908;2024-02-16T04:04:02;89431.13;;;3.83;95.56
72585;BME280;73873;40.084;32.908;2024-02-16T04:06:29;89432.75;;;3.80;95.33
72585;BME280;73873;40.084;32.908;2024-02-16T04:08:56;89426.75;;;3.80;95.06
72585;BME280;73873;40.084;32.908;2024-02-16T04:11:23;89437.09;;;3.74;95.79
72585;BME280;73873;40.084;32.908;2024-02-16T04:13:50;89436.50;;;3.70;95.43
72585;BME280;73873;40.084;32.908;2024-02-16T04:16:17;89440.69;;;3.67;96.22
72585;BME280;73873;40.084;32.908;2024-02-16T04:18:44;89436.06;;;3.72;96.08
72585;BME280;73873;40.084;32.908;2024-02-16T04:21:11;89437.72;;;3.78;96.19
72585;BME280;73873;40.084;32.908;2024-02-16T04:23:38;89435.91;;;3.75;96.31
72585;BME280;73873;40.084;32.908;2024-02-16T04:26:04;89440.63;;;3.80;95.86
72585;BME280;73873;40.084;32.908;2024-02-16T04:28:31;89444.88;;;3.78;96.21
72585;BME280;73873;40.084;32.908;2024-02-16T04:30:58;89443.72;;;3.79;95.85
72585;BME280;73873;40.084;32.908;2024-02-16T04:33:25;89446.34;;;3.79;95.59
72585;BME280;73873;40.084;32.908;2024-02-16T04:35:53;89444.75;;;3.81;95.08
72585;BME280;73873;40.084;32.908;2024-02-16T04:38:20;89449.88;;;3.85;95.20
72585;BME280;73873;40.084;32.908;2024-02-16T04:40:47;89452.63;;;3.81;95.04
72585;BME280;73873;40.084;32.908;2024-02-16T04:43:14;89456.88;;;3.79;95.08
72585;BME280;73873;40.084;32.908;2024-02-16T04:45:41;89460.69;;;3.78;95.50
72585;BME280;73873;40.084;32.908;2024-02-16T04:48:08;89461.25;;;3.16;96.20
72585;BME280;73873;40.084;32.908;2024-02-16T04:50:35;89467.25;;;3.17;95.84
72585;BME280;73873;40.084;32.908;2024-02-16T04:53:02;89476.84;;;3.10;95.89
72585;BME280;73873;40.084;32.908;2024-02-16T04:55:30;89470.22;;;3.06;96.17
72585;BME280;73873;40.084;32.908;2024-02-16T04:57:57;89479.47;;;3.10;96.29
72585;BME280;73873;40.084;32.908;2024-02-16T05:00:23;89482.19;;;3.20;96.23
72585;BME280;73873;40.084;32.908;2024-02-16T05:02:51;89481.09;;;3.30;96.32
72585;BME280;73873;40.084;32.908;2024-02-16T05:05:18;89480.66;;;3.31;96.41
72585;BME280;73873;40.084;32.908;2024-02-16T05:07:49;89486.00;;;3.40;96.53
72585;BME280;73873;40.084;32.908;2024-02-16T05:10:16;89486.13;;;3.02;98.22
72585;BME280;73873;40.084;32.908;2024-02-16T05:12:43;89489.25;;;3.10;98.48
72585;BME280;73873;40.084;32.908;2024-02-16T05:15:10;89494.00;;;3.02;98.73
72585;BME280;73873;40.084;32.908;2024-02-16T05:17:37;89501.31;;;2.47;100.00
72585;BME280;73873;40.084;32.908;2024-02-16T05:20:10;89503.09;;;2.50;100.00
72585;BME280;73873;40.084;32.908;2024-02-16T05:22:37;89502.38;;;2.50;100.00
72585;BME280;73873;40.084;32.908;2024-02-16T05:25:04;89503.09;;;2.50;100.00
72585;BME280;73873;40.084;32.908;2024-02-16T05:27:31;89502.38;;;2.63;100.00
72585;BME280;73873;40.084;32.908;2024-02-16T05:29:58;89502.56;;;2.81;100.00
72585;BME280;73873;40.084;32.908;2024-02-16T05:32:25;89511.63;;;2.80;100.00
72585;BME280;73873;40.084;32.908;2024-02-16T05:34:52;89506.47;;;2.76;100.00
72585;BME280;73873;40.084;32.908;2024-02-16T05:37:21;89499.94;;;2.81;100.00
72585;BME280;73873;40.084;32.908;2024-02-16T05:39:48;89499.63;;;2.79;100.00
72585;BME280;73873;40.084;32.908;2024-02-16T05:42:15;89511.28;;;2.91;100.00
72585;BME280;73873;40.084;32.908;2024-02-16T05:44:42;89499.72;;;2.88;100.00
72585;BME280;73873;40.084;32.908;2024-02-16T05:47:09;89508.75;;;2.87;100.00
72585;BME280;73873;40.084;32.908;2024-02-16T05:49:36;89506.34;;;2.93;100.00
72585;BME280;73873;40.084;32.908;2024-02-16T05:52:03;89508.44;;;2.98;100.00
72585;BME280;73873;40.084;32.908;2024-02-16T05:54:31;89513.38;;;3.08;100.00
72585;BME280;73873;40.084;32.908;2024-02-16T05:57:00;89514.19;;;3.18;100.00
72585;BME280;73873;40.084;32.908;2024-02-16T05:59:27;89511.06;;;3.32;100.00
72585;BME280;73873;40.084;32.908;2024-02-16T06:01:54;89513.53;;;3.27;100.00
72585;BME280;73873;40.084;32.908;2024-02-16T06:04:21;89519.25;;;3.12;100.00
72585;BME280;73873;40.084;32.908;2024-02-16T06:06:48;89519.34;;;3.09;100.00
72585;BME280;73873;40.084;32.908;2024-02-16T06:09:15;89523.53;;;3.19;100.00
72585;BME280;73873;40.084;32.908;2024-02-16T06:11:41;89518.06;;;3.13;100.00
72585;BME280;73873;40.084;32.908;2024-02-16T06:14:08;89520.75;;;3.01;100.00
72585;BME280;73873;40.084;32.908;2024-02-16T06:16:35;89520.31;;;3.02;100.00
72585;BME280;73873;40.084;32.908;2024-02-16T06:19:02;89520.41;;;3.11;100.00
72585;BME280;73873;40.084;32.908;2024-02-16T06:21:29;89517.09;;;3.33;100.00
72585;BME280;73873;40.084;32.908;2024-02-16T06:23:56;89520.78;;;3.35;100.00
72585;BME280;73873;40.084;32.908;2024-02-16T06:26:23;89515.38;;;3.39;100.00
72585;BME280;73873;40.084;32.908;2024-02-16T06:28:50;89517.72;;;3.37;100.00
72585;BME280;73873;40.084;32.908;2024-02-16T06:31:16;89508.06;;;3.56;100.00
72585;BME280;73873;40.084;32.908;2024-02-16T06:33:43;89513.09;;;3.63;100.00
72585;BME280;73873;40.084;32.908;2024-02-16T06:36:10;89513.97;;;3.82;100.00
72585;BME280;73873;40.084;32.908;2024-02-16T06:38:37;89519.94;;;4.04;100.00
72585;BME280;73873;40.084;32.908;2024-02-16T06:41:04;89515.22;;;4.21;100.00
72585;BME280;73873;40.084;32.908;2024-02-16T06:43:31;89515.31;;;4.08;100.00
72585;BME280;73873;40.084;32.908;2024-02-16T06:45:58;89519.03;;;3.98;100.00
72585;BME280;73873;40.084;32.908;2024-02-16T06:48:25;89532.13;;;3.67;100.00
72585;BME280;73873;40.084;32.908;2024-02-16T06:50:52;89531.72;;;3.34;100.00
72585;BME280;73873;40.084;32.908;2024-02-16T06:53:19;89530.66;;;3.44;100.00
72585;BME280;73873;40.084;32.908;2024-02-16T06:55:46;89535.84;;;3.35;100.00
72585;BME280;73873;40.084;32.908;2024-02-16T06:58:13;89534.53;;;3.39;100.00
72585;BME280;73873;40.084;32.908;2024-02-16T07:00:40;89537.91;;;3.40;100.00
72585;BME280;73873;40.084;32.908;2024-02-16T07:03:07;89546.97;;;3.39;100.00
72585;BME280;73873;40.084;32.908;2024-02-16T07:05:35;89542.25;;;3.34;100.00
72585;BME280;73873;40.084;32.908;2024-02-16T07:08:03;89531.81;;;3.43;100.00
72585;BME280;73873;40.084;32.908;2024-02-16T07:10:30;89543.97;;;3.62;100.00
72585;BME280;73873;40.084;32.908;2024-02-16T07:12:57;89547.44;;;3.59;100.00
72585;BME280;73873;40.084;32.908;2024-02-16T07:15:24;89549.91;;;3.41;100.00
72585;BME280;73873;40.084;32.908;2024-02-16T07:17:50;89559.94;;;3.33;100.00
72585;BME280;73873;40.084;32.908;2024-02-16T07:20:18;89548.69;;;3.33;100.00
72585;BME280;73873;40.084;32.908;2024-02-16T07:22:45;89553.69;;;3.40;100.00
72585;BME280;73873;40.084;32.908;2024-02-16T07:25:12;89553.44;;;3.25;100.00
72585;BME280;73873;40.084;32.908;2024-02-16T07:27:39;89553.16;;;3.45;100.00
72585;BME280;73873;40.084;32.908;2024-02-16T07:30:06;89561.69;;;3.49;100.00
72585;BME280;73873;40.084;32.908;2024-02-16T07:32:33;89561.22;;;3.63;100.00
72585;BME280;73873;40.084;32.908;2024-02-16T07:35:00;89559.59;;;3.44;100.00
72585;BME280;73873;40.084;32.908;2024-02-16T07:37:27;89557.69;;;3.45;100.00
72585;BME280;73873;40.084;32.908;2024-02-16T07:39:54;89555.75;;;3.58;100.00
72585;BME280;73873;40.084;32.908;2024-02-16T07:42:46;89556.47;;;3.71;100.00
72585;BME280;73873;40.084;32.908;2024-02-16T07:45:13;89558.78;;;3.69;100.00
72585;BME280;73873;40.084;32.908;2024-02-16T07:47:41;89556.34;;;3.75;100.00
72585;BME280;73873;40.084;32.908;2024-02-16T07:50:09;89564.13;;;4.00;100.00
72585;BME280;73873;40.084;32.908;2024-02-16T07:52:38;89557.22;;;4.15;100.00
72585;BME280;73873;40.084;32.908;2024-02-16T07:55:06;89558.59;;;4.51;100.00
72585;BME280;73873;40.084;32.908;2024-02-16T07:57:33;89551.06;;;4.71;100.00
72585;BME280;73873;40.084;32.908;2024-02-16T08:00:01;89560.25;;;4.98;100.00
72585;BME280;73873;40.084;32.908;2024-02-16T08:02:28;89556.94;;;4.75;100.00
72585;BME280;73873;40.084;32.908;2024-02-16T08:04:55;89558.06;;;4.96;100.00
72585;BME280;73873;40.084;32.908;2024-02-16T08:07:22;89565.72;;;5.03;100.00
72585;BME280;73873;40.084;32.908;2024-02-16T08:09:49;89560.13;;;5.01;100.00
72585;BME280;73873;40.084;32.908;2024-02-16T08:12:16;89560.31;;;5.16;100.00
72585;BME280;73873;40.084;32.908;2024-02-16T08:14:43;89567.50;;;5.16;100.00
72585;BME280;73873;40.084;32.908;2024-02-16T08:17:10;89563.88;;;5.22;100.00
72585;BME280;73873;40.084;32.908;2024-02-16T08:19:51;89572.41;;;5.35;100.00
72585;BME280;73873;40.084;32.908;2024-02-16T08:22:18;89573.44;;;5.56;100.00
72585;BME280;73873;40.084;32.908;2024-02-16T08:24:45;89577.44;;;5.61;100.00
72585;BME280;73873;40.084;32.908;2024-02-16T08:27:13;89569.41;;;5.92;100.00
72585;BME280;73873;40.084;32.908;2024-02-16T08:29:42;89567.91;;;5.73;100.00
72585;BME280;73873;40.084;32.908;2024-02-16T08:32:10;89564.00;;;5.95;100.00
72585;BME280;73873;40.084;32.908;2024-02-16T08:34:37;89567.66;;;6.07;100.00
72585;BME280;73873;40.084;32.908;2024-02-16T08:37:05;89561.63;;;6.25;100.00
72585;BME280;73873;40.084;32.908;2024-02-16T08:39:33;89558.41;;;6.03;99.19
72585;BME280;73873;40.084;32.908;2024-02-16T08:42:00;89559.88;;;6.22;98.88
72585;BME280;73873;40.084;32.908;2024-02-16T08:44:27;89552.72;;;6.65;98.61
72585;BME280;73873;40.084;32.908;2024-02-16T08:46:54;89561.09;;;6.63;98.20
72585;BME280;73873;40.084;32.908;2024-02-16T08:49:21;89555.34;;;6.74;96.38
72585;BME280;73873;40.084;32.908;2024-02-16T08:51:48;89552.16;;;6.61;97.54
72585;BME280;73873;40.084;32.908;2024-02-16T08:54:15;89557.56;;;6.75;96.83
72585;BME280;73873;40.084;32.908;2024-02-16T08:56:42;89550.53;;;7.05;96.51
72585;BME280;73873;40.084;32.908;2024-02-16T08:59:09;89545.44;;;7.26;94.44
72585;BME280;73873;40.084;32.908;2024-02-16T09:01:37;89541.88;;;7.38;95.45
72585;BME280;73873;40.084;32.908;2024-02-16T09:04:04;89544.50;;;7.62;92.18
72585;BME280;73873;40.084;32.908;2024-02-16T09:06:32;89543.09;;;7.76;90.22
72585;BME280;73873;40.084;32.908;2024-02-16T09:08:59;89534.16;;;7.73;88.11
72585;BME280;73873;40.084;32.908;2024-02-16T09:11:26;89539.66;;;7.60;87.75
72585;BME280;73873;40.084;32.908;2024-02-16T09:13:53;89535.41;;;8.02;88.09
72585;BME280;73873;40.084;32.908;2024-02-16T09:16:20;89529.91;;;8.05;84.65
72585;BME280;73873;40.084;32.908;2024-02-16T09:18:50;89525.06;;;8.04;85.79
72585;BME280;73873;40.084;32.908;2024-02-16T09:21:18;89530.16;;;7.92;83.45
72585;BME280;73873;40.084;32.908;2024-02-16T09:23:45;89535.16;;;8.14;88.43
72585;BME280;73873;40.084;32.908;2024-02-16T09:26:12;89532.22;;;8.12;86.69
72585;BME280;73873;40.084;32.908;2024-02-16T09:28:40;89536.25;;;8.22;84.93
72585;BME280;73873;40.084;32.908;2024-02-16T09:31:07;89532.75;;;8.16;83.59
72585;BME280;73873;40.084;32.908;2024-02-16T09:33:34;89528.13;;;8.26;82.80
72585;BME280;73873;40.084;32.908;2024-02-16T09:36:01;89535.88;;;8.00;83.24
72585;BME280;73873;40.084;32.908;2024-02-16T09:38:28;89535.94;;;7.91;84.11
72585;BME280;73873;40.084;32.908;2024-02-16T09:40:55;89531.63;;;7.93;83.98
72585;BME280;73873;40.084;32.908;2024-02-16T09:43:28;89532.34;;;8.33;80.45
72585;BME280;73873;40.084;32.908;2024-02-16T09:45:56;89527.06;;;8.62;80.54
72585;BME280;73873;40.084;32.908;2024-02-16T09:48:26;89520.00;;;8.89;79.51
72585;BME280;73873;40.084;32.908;2024-02-16T09:50:54;89517.78;;;9.17;78.88
72585;BME280;73873;40.084;32.908;2024-02-16T09:53:25;89513.63;;;9.30;75.41
72585;BME280;73873;40.084;32.908;2024-02-16T09:55:52;89517.25;;;8.98;75.04
72585;BME280;73873;40.084;32.908;2024-02-16T09:58:20;89514.25;;;8.75;75.78
72585;BME280;73873;40.084;32.908;2024-02-16T10:00:54;89512.13;;;9.09;74.09
72585;BME280;73873;40.084;32.908;2024-02-16T10:03:26;89505.50;;;9.04;75.52
72585;BME280;73873;40.084;32.908;2024-02-16T10:06:10;89509.16;;;9.07;74.71
72585;BME280;73873;40.084;32.908;2024-02-16T10:09:07;89503.72;;;8.81;74.45
72585;BME280;73873;40.084;32.908;2024-02-16T10:11:34;89502.56;;;9.17;73.03
72585;BME280;73873;40.084;32.908;2024-02-16T10:14:03;89499.81;;;9.47;71.59
72585;BME280;73873;40.084;32.908;2024-02-16T10:16:31;89494.75;;;9.69;70.75
72585;BME280;73873;40.084;32.908;2024-02-16T10:19:08;89489.69;;;9.30;70.89
72585;BME280;73873;40.084;32.908;2024-02-16T10:21:37;89496.31;;;9.76;71.09
72585;BME280;73873;40.084;32.908;2024-02-16T10:24:06;89488.91;;;10.26;68.05
72585;BME280;73873;40.084;32.908;2024-02-16T10:26:39;89490.56;;;10.49;64.48
72585;BME280;73873;40.084;32.908;2024-02-16T10:29:10;89485.78;;;10.54;66.25
72585;BME280;73873;40.084;32.908;2024-02-16T10:31:37;89485.19;;;9.98;64.77
72585;BME280;73873;40.084;32.908;2024-02-16T10:34:05;89479.09;;;9.71;68.64
72585;BME280;73873;40.084;32.908;2024-02-16T10:36:35;89479.66;;;10.01;69.15
72585;BME280;73873;40.084;32.908;2024-02-16T10:39:05;89477.34;;;9.88;68.70
72585;BME280;73873;40.084;32.908;2024-02-16T10:41:37;89476.31;;;9.80;71.44
72585;BME280;73873;40.084;32.908;2024-02-16T10:44:05;89473.06;;;10.17;69.78
72585;BME280;73873;40.084;32.908;2024-02-16T10:46:33;89477.22;;;10.75;69.82
72585;BME280;73873;40.084;32.908;2024-02-16T10:49:01;89474.59;;;11.13;67.64
72585;BME280;73873;40.084;32.908;2024-02-16T10:51:46;89473.19;;;11.23;63.16
72585;BME280;73873;40.084;32.908;2024-02-16T10:54:20;89473.84;;;10.75;64.37
72585;BME280;73873;40.084;32.908;2024-02-16T10:56:49;89465.75;;;10.64;64.55
72585;BME280;73873;40.084;32.908;2024-02-16T10:59:16;89464.25;;;10.31;64.24
72585;BME280;73873;40.084;32.908;2024-02-16T11:01:44;89465.84;;;10.43;67.01
72585;BME280;73873;40.084;32.908;2024-02-16T11:04:14;89460.00;;;10.71;64.23
72585;BME280;73873;40.084;32.908;2024-02-16T11:06:47;89451.66;;;10.89;64.05
72585;BME280;73873;40.084;32.908;2024-02-16T11:09:34;89453.81;;;10.54;62.67
72585;BME280;73873;40.084;32.908;2024-02-16T11:12:03;89446.91;;;10.41;63.66
72585;BME280;73873;40.084;32.908;2024-02-16T11:14:48;89447.13;;;11.01;65.44
72585;BME280;73873;40.084;32.908;2024-02-16T11:17:20;89445.22;;;11.50;64.97
72585;BME280;73873;40.084;32.908;2024-02-16T11:19:48;89440.63;;;12.04;62.07
72585;BME280;73873;40.084;32.908;2024-02-16T11:22:17;89440.88;;;12.12;57.22
72585;BME280;73873;40.084;32.908;2024-02-16T11:24:49;89435.59;;;12.40;59.96
72585;BME280;73873;40.084;32.908;2024-02-16T11:27:17;89441.47;;;12.77;60.18
72585;BME280;73873;40.084;32.908;2024-02-16T11:29:45;89440.22;;;13.12;60.71
72585;BME280;73873;40.084;32.908;2024-02-16T11:32:12;89438.75;;;13.11;54.27
72585;BME280;73873;40.084;32.908;2024-02-16T11:34:39;89436.09;;;13.05;54.21
72585;BME280;73873;40.084;32.908;2024-02-16T11:37:07;89422.72;;;13.28;57.17
72585;BME280;73873;40.084;32.908;2024-02-16T11:39:34;89431.47;;;13.40;57.33
72585;BME280;73873;40.084;32.908;2024-02-16T11:42:04;89426.81;;;13.51;55.76
72585;BME280;73873;40.084;32.908;2024-02-16T11:44:35;89428.25;;;13.52;53.60
72585;BME280;73873;40.084;32.908;2024-02-16T11:47:03;89424.13;;;13.57;55.18
72585;BME280;73873;40.084;32.908;2024-02-16T11:49:30;89433.78;;;13.71;56.68
72585;BME280;73873;40.084;32.908;2024-02-16T11:52:00;89426.81;;;14.09;58.20
72585;BME280;73873;40.084;32.908;2024-02-16T11:54:27;89425.72;;;13.82;52.13
72585;BME280;73873;40.084;32.908;2024-02-16T11:56:54;89435.91;;;13.89;53.91
72585;BME280;73873;40.084;32.908;2024-02-16T11:59:22;89427.63;;;13.93;55.20
72585;BME280;73873;40.084;32.908;2024-02-16T12:01:57;89430.03;;;13.97;55.20
72585;BME280;73873;40.084;32.908;2024-02-16T12:04:28;89433.38;;;14.08;55.85
72585;BME280;73873;40.084;32.908;2024-02-16T12:07:00;89434.38;;;14.05;54.28
72585;BME280;73873;40.084;32.908;2024-02-16T12:09:31;89426.09;;;13.12;50.92
72585;BME280;73873;40.084;32.908;2024-02-16T12:11:58;89433.09;;;11.97;53.26
72585;BME280;73873;40.084;32.908;2024-02-16T12:14:25;89431.16;;;11.01;56.57
72585;BME280;73873;40.084;32.908;2024-02-16T12:16:55;89434.22;;;10.57;56.69
72585;BME280;73873;40.084;32.908;2024-02-16T12:19:23;89430.06;;;10.24;58.62
72585;BME280;73873;40.084;32.908;2024-02-16T12:21:57;89433.25;;;10.28;58.50
72585;BME280;73873;40.084;32.908;2024-02-16T12:24:24;89441.38;;;10.19;58.86
72585;BME280;73873;40.084;32.908;2024-02-16T12:26:54;89441.22;;;10.54;59.40
72585;BME280;73873;40.084;32.908;2024-02-16T12:29:21;89437.16;;;10.33;59.78
72585;BME280;73873;40.084;32.908;2024-02-16T12:31:47;89443.66;;;10.26;59.62
72585;BME280;73873;40.084;32.908;2024-02-16T12:34:14;89438.34;;;10.58;60.42
72585;BME280;73873;40.084;32.908;2024-02-16T12:36:42;89434.19;;;10.83;60.15
72585;BME280;73873;40.084;32.908;2024-02-16T12:39:14;89433.50;;;10.88;59.32
72585;BME280;73873;40.084;32.908;2024-02-16T12:41:41;89432.53;;;10.91;59.18
72585;BME280;73873;40.084;32.908;2024-02-16T12:44:08;89438.78;;;10.50;58.95
72585;BME280;73873;40.084;32.908;2024-02-16T12:46:35;89436.59;;;10.23;61.44
72585;BME280;73873;40.084;32.908;2024-02-16T12:49:01;89433.84;;;9.91;61.75
72585;BME280;73873;40.084;32.908;2024-02-16T12:51:29;89422.19;;;9.63;62.84
72585;BME280;73873;40.084;32.908;2024-02-16T12:53:56;89425.38;;;9.47;63.20
72585;BME280;73873;40.084;32.908;2024-02-16T12:56:23;89428.22;;;9.43;61.87
72585;BME280;73873;40.084;32.908;2024-02-16T12:58:49;89423.84;;;9.40;63.81